Airfield :
LOGIN :

Register | Disclaimer

   EN    FR    IT 

 










Legend :    VFR   Marginal VFR   IFR   Intensive IFR   Very Intensive IFR
Visi :
Ceiling :
>= 8 km
>= 3000ft
5 to 8 km
1000 to 3000 ft
1500m to 5 km
500 to 1000 ft
800 to 1500m
200 to 500 ft
< 800m
< 200 ft
Symbols :   Thunderstorms  Fog  Heavy snow  Heavy precipitations  Wind > 20 kt
SIGMETs :     Misc.  Thunderstorms  Icing  Turbulence  Mountain Waves  Volcanic Ashes







- Airport Elevation : 2026 ft
- IATA code : TOJ


LETO - Madrid Torrejon

CURRENT METAR :
  • 171400Z 31005KT 9999 FEW030 SCT040TCU 32/11 Q1017 NOSIG

EXPIRED METARs :
  • 171300Z 22003KT 150V300 9999 FEW030 FEW040TCU 31/11 Q1018 NOSIG
  • 171200Z 09002KT 9999 FEW040TCU 29/12 Q1018 NOSIG

TAF TAF LETO
Valid from the 17 at 12:00 until the 18 at 12:00 UTC


171100Z 1712/1812 VRB05KT CAVOK TX32/1715Z TN16/1806Z
PROB40
TEMPO 1712/1719 FEW040TCU
BECMG 1719/1721 04010KT
TEMPO 1721/1801 04015G25KT
No reported NOTAMs for that airfield.
1 SIGMET reported for the Madrid FIR (LECM) :
 
Embedded thunderstorms
LECM SIGMET 1 VALID 171300/171600 LEVA
LECM MADRID FIR/UIR EMBD TS FCST WI N4010 W001 - N3730 W00150 - N3640 W00250 - N3640 W00430 - N3840 W00410 - N4030 W002 - N4010 W001 TOP FL380 STNR NC=



MET'MAP, your aeronautical weather chart ! - Copyright ORBIFLY December 2007 - Disclaimer

ORBIFLY MET'MAP TEAM :

Programming & Development : Alexandra Zaïnal
Concept & Development : Baudouin d'Aumeries
Co-Development & Prog : Marc-Olivier Méhu
Technical & hardware support : Manuel Goepfert

Contact : metmap@orbifly.com




SOURCES & CREDITS :

   NOAA